Rothbury, Michigan
Current Conditions -  °F | °C
As of 6:52 AM on Sunday 21 Dec 2014 (Local Time) from KFFX Reporting Station
Haze Haze  
Wind Chill: 26°   Ceiling: 1900
Heat Index: 31°   Visibility: 5mi
Dew Point: 30°   Wind: 5mph
Humidity: 96%   Direction: 150°SSE
Pressure: 30.22"   Gusts: NA
Location:  43.51°N, 86.35°W
Report Text: KFFX 211152Z AUTO 15004KT 5SM BR SCT011 OVC019 M01/M01 A3022 RMK AO2 T10071013
Loading
Personal Weather Stations






























Interactive Weather Map New forecast layout! Learn more

10-Day Weather Forecast

Advertisements
Track Severe Weather on mobile